Time;durP1;ratioP1;P1;durP2;ratioP2;P2;SDS_P1;SDS_P2;PMS_P1;PMS_P2;Temp;Humidity;BMP_temperature;BMP_pressure;BME280_temperature;BME280_humidity;BME280_pressure;Samples;Min_cycle;Max_cycle;Signal;HPM_P1;HPM_P2
2021/04/13 00:02:38;;;;;;;0.43;0.30;;;22.50;41.30;;;;;;5147538;28;20092;-76
2021/04/13 00:05:11;;;;;;;1.05;0.30;;;22.40;41.60;;;;;;5174830;28;20017;-78
2021/04/13 00:07:43;;;;;;;0.73;0.30;;;22.20;42.00;;;;;;5168461;28;20092;-76
2021/04/13 00:10:19;;;;;;;0.63;0.30;;;22.10;42.30;;;;;;5185193;28;20025;-74
2021/04/13 00:12:49;;;;;;;0.52;0.25;;;22.00;42.80;;;;;;5148501;28;20076;-77
2021/04/13 00:15:28;;;;;;;3.70;0.30;;;21.80;43.10;;;;;;5148544;28;20480;-76
2021/04/13 00:18:00;;;;;;;0.35;0.20;;;21.60;43.50;;;;;;5164374;28;20037;-76
2021/04/13 00:20:43;;;;;;;1.27;0.20;;;21.60;44.00;;;;;;5164743;28;20022;-76
2021/04/13 00:23:13;;;;;;;4.05;0.28;;;21.40;44.30;;;;;;5148745;28;20030;-74
2021/04/13 00:25:47;;;;;;;0.55;0.10;;;21.30;44.80;;;;;;5148707;28;20045;-75
2021/04/13 00:28:34;;;;;;;4.95;0.30;;;21.20;45.00;;;;;;5164179;28;20030;-75
2021/04/13 00:31:06;;;;;;;2.72;0.20;;;21.20;45.30;;;;;;5164101;28;20038;-76
2021/04/13 00:33:37;;;;;;;1.33;0.43;;;21.10;45.40;;;;;;5164354;28;20053;-78
2021/04/13 00:36:12;;;;;;;0.57;0.30;;;21.00;45.50;;;;;;5164729;28;20493;-76
2021/04/13 00:38:47;;;;;;;1.05;0.38;;;21.00;46.10;;;;;;5163695;28;20108;-76
2021/04/13 00:41:26;;;;;;;2.45;0.40;;;20.90;46.20;;;;;;5164823;28;20035;-76
2021/04/13 00:44:09;;;;;;;0.20;0.20;;;20.90;46.50;;;;;;5165046;28;20030;-75
2021/04/13 00:46:50;;;;;;;2.55;0.20;;;20.90;46.60;;;;;;5163486;28;20129;-76
2021/04/13 00:49:21;;;;;;;1.55;0.38;;;20.80;46.80;;;;;;5163990;28;20086;-76
2021/04/13 00:51:54;;;;;;;2.03;0.22;;;20.80;47.30;;;;;;5164044;28;20390;-76
2021/04/13 00:54:26;;;;;;;4.22;0.22;;;20.80;47.40;;;;;;5164429;28;20077;-76
2021/04/13 00:57:01;;;;;;;2.35;0.20;;;20.70;47.50;;;;;;5163643;28;20066;-75
2021/04/13 00:59:31;;;;;;;1.90;0.30;;;20.70;47.70;;;;;;5163953;28;20026;-75
2021/04/13 01:02:08;;;;;;;1.02;0.20;;;20.70;47.90;;;;;;5163115;28;20498;-76
2021/04/13 01:04:48;;;;;;;0.22;0.20;;;20.70;47.90;;;;;;5168535;28;20033;-76
2021/04/13 01:07:37;;;;;;;2.28;0.43;;;20.70;47.90;;;;;;5183766;28;20028;-76
2021/04/13 01:10:17;;;;;;;2.20;0.20;;;20.70;48.00;;;;;;5183734;28;20030;-76
2021/04/13 01:12:53;;;;;;;3.75;0.30;;;20.70;47.90;;;;;;5162967;28;20034;-75
2021/04/13 01:15:24;;;;;;;1.02;0.20;;;20.70;48.00;;;;;;5146892;28;20497;-76
2021/04/13 01:17:54;;;;;;;1.02;0.20;;;20.70;48.20;;;;;;5163326;28;20097;-76
2021/04/13 01:20:31;;;;;;;1.95;0.28;;;20.70;48.10;;;;;;5163614;28;20183;-76
2021/04/13 01:23:08;;;;;;;2.28;0.30;;;20.60;48.10;;;;;;5163418;28;20031;-76
2021/04/13 01:25:41;;;;;;;1.48;0.30;;;20.60;48.20;;;;;;5163276;28;20022;-77
2021/04/13 01:28:22;;;;;;;2.13;0.20;;;20.60;48.20;;;;;;5163056;28;20027;-76
2021/04/13 01:30:55;;;;;;;1.55;0.50;;;20.60;48.30;;;;;;5147592;28;20030;-76
2021/04/13 01:33:52;;;;;;;0.85;0.30;;;20.60;48.20;;;;;;5163050;28;20050;-76
2021/04/13 01:36:25;;;;;;;0.35;0.17;;;20.60;48.20;;;;;;5163680;28;20459;-76
2021/04/13 01:39:10;;;;;;;0.57;0.30;;;20.60;48.40;;;;;;5146395;28;20084;-76
2021/04/13 01:41:57;;;;;;;0.22;0.20;;;20.60;48.40;;;;;;5163159;28;20034;-77
2021/04/13 01:44:31;;;;;;;0.30;0.20;;;20.60;48.40;;;;;;5163448;28;20030;-76
2021/04/13 01:47:02;;;;;;;1.15;0.35;;;20.60;48.50;;;;;;5162146;28;20101;-76
2021/04/13 01:49:48;;;;;;;0.47;0.25;;;20.60;49.30;;;;;;5162809;28;20057;-76
2021/04/13 01:52:23;;;;;;;0.35;0.20;;;20.50;48.70;;;;;;5162814;28;20408;-76
2021/04/13 01:54:54;;;;;;;0.57;0.20;;;20.50;48.60;;;;;;5163379;28;20042;-76
2021/04/13 01:57:51;;;;;;;2.28;0.40;;;20.50;48.80;;;;;;5162610;28;20509;-76
2021/04/13 02:00:51;;;;;;;5.47;0.40;;;20.50;49.10;;;;;;5145931;28;20085;-76
2021/04/13 02:03:28;;;;;;;3.47;0.30;;;20.50;49.00;;;;;;5162769;28;20034;-76
2021/04/13 02:06:01;;;;;;;1.05;0.30;;;20.50;49.10;;;;;;5167990;28;20432;-76
2021/04/13 02:08:37;;;;;;;1.98;0.22;;;20.50;49.20;;;;;;5165957;28;20034;-74
2021/04/13 02:11:11;;;;;;;1.25;0.30;;;20.50;49.40;;;;;;5173720;28;20021;-76
2021/04/13 02:14:02;;;;;;;0.75;0.38;;;20.50;49.30;;;;;;5203480;28;20438;-76
2021/04/13 02:16:34;;;;;;;2.97;0.40;;;20.50;49.20;;;;;;5202658;28;20029;-75
2021/04/13 02:19:07;;;;;;;9.43;0.85;;;20.50;49.70;;;;;;5187007;28;20030;-76
2021/04/13 02:21:58;;;;;;;1.48;0.25;;;20.50;49.70;;;;;;5186805;28;20029;-75
2021/04/13 02:24:32;;;;;;;4.05;0.30;;;20.50;49.70;;;;;;5189455;28;20064;-75
2021/04/13 02:27:14;;;;;;;2.75;0.30;;;20.50;49.60;;;;;;5203179;28;20033;-76
2021/04/13 02:29:47;;;;;;;4.32;0.28;;;20.50;49.50;;;;;;5204565;28;20450;-76
2021/04/13 02:32:20;;;;;;;2.33;0.28;;;20.50;49.60;;;;;;5185877;28;20061;-76
2021/04/13 02:35:01;;;;;;;1.30;0.20;;;20.50;49.50;;;;;;5203558;28;20030;-76
2021/04/13 02:37:43;;;;;;;1.55;0.30;;;20.40;49.60;;;;;;5207218;28;20105;-76
2021/04/13 02:40:29;;;;;;;2.10;0.22;;;20.50;49.70;;;;;;5208301;28;20032;-76
2021/04/13 02:43:02;;;;;;;2.17;0.30;;;20.50;49.70;;;;;;5207409;28;20045;-75
2021/04/13 02:45:50;;;;;;;2.00;0.30;;;20.50;49.70;;;;;;5206899;28;20033;-76
2021/04/13 02:48:25;;;;;;;0.25;0.20;;;20.50;49.80;;;;;;5190829;28;20029;-74
2021/04/13 02:51:14;;;;;;;1.35;0.28;;;20.40;49.70;;;;;;5207216;28;20072;-75
2021/04/13 02:53:51;;;;;;;0.45;0.20;;;20.40;49.70;;;;;;5207143;28;20084;-76
2021/04/13 02:56:32;;;;;;;0.10;0.10;;;20.40;49.80;;;;;;5191136;28;20025;-76
2021/04/13 02:59:09;;;;;;;0.85;0.20;;;20.40;49.80;;;;;;5207503;28;20045;-76
2021/04/13 03:01:49;;;;;;;0.30;0.20;;;20.40;49.80;;;;;;5206021;28;20030;-76
2021/04/13 03:04:19;;;;;;;1.77;0.20;;;20.40;50.00;;;;;;5208101;28;20029;-76
2021/04/13 03:06:51;;;;;;;0.40;0.20;;;20.40;49.90;;;;;;5194607;28;20124;-76
2021/04/13 03:09:26;;;;;;;0.60;0.20;;;20.40;49.90;;;;;;5186425;28;20539;-76
2021/04/13 03:11:59;;;;;;;0.95;0.20;;;20.40;49.90;;;;;;5186161;28;20527;-76
2021/04/13 03:14:34;;;;;;;0.20;0.20;;;20.40;50.00;;;;;;5186677;28;20508;-75
2021/04/13 03:17:11;;;;;;;1.98;0.30;;;20.40;50.00;;;;;;5185082;28;20057;-76
2021/04/13 03:19:42;;;;;;;1.38;0.20;;;20.40;49.90;;;;;;5186144;28;20396;-76
2021/04/13 03:22:12;;;;;;;0.28;0.20;;;20.50;50.00;;;;;;5185952;28;20038;-75
2021/04/13 03:24:44;;;;;;;4.57;0.30;;;20.50;50.00;;;;;;5186400;28;20038;-76
2021/04/13 03:27:16;;;;;;;12.05;0.45;;;20.40;50.10;;;;;;5185782;28;20064;-75
2021/04/13 03:30:14;;;;;;;5.00;0.50;;;20.50;50.60;;;;;;5185812;28;20025;-76
2021/04/13 03:32:59;;;;;;;5.45;0.35;;;20.50;50.30;;;;;;5170489;28;20034;-76
2021/04/13 03:35:30;;;;;;;3.90;0.45;;;20.50;50.40;;;;;;5169790;28;20036;-75
2021/04/13 03:38:01;;;;;;;4.85;0.30;;;20.50;50.40;;;;;;5185519;28;20435;-76
2021/04/13 03:40:32;;;;;;;2.40;0.57;;;20.50;50.50;;;;;;5185812;28;20068;-77
2021/04/13 03:43:07;;;;;;;3.75;0.20;;;20.50;50.40;;;;;;5185446;28;20129;-76
2021/04/13 03:45:37;;;;;;;1.95;0.22;;;20.50;50.20;;;;;;5185089;28;20041;-75
2021/04/13 03:48:29;;;;;;;0.95;0.20;;;20.50;50.30;;;;;;5184639;28;20030;-76
2021/04/13 03:51:07;;;;;;;2.58;0.30;;;20.50;50.30;;;;;;5185233;28;20533;-76
2021/04/13 03:53:43;;;;;;;1.67;0.30;;;20.50;50.40;;;;;;5185503;28;20084;-76
2021/04/13 03:56:18;;;;;;;5.40;0.50;;;20.50;50.30;;;;;;5185827;28;20022;-75
2021/04/13 03:58:53;;;;;;;;;;;20.50;50.40;;;;;;5185153;28;20069;-75
2021/04/13 04:01:32;;;;;;;1.30;0.30;;;20.40;50.30;;;;;;5184742;28;20573;-76
2021/04/13 04:04:04;;;;;;;7.65;0.50;;;20.40;50.60;;;;;;5185108;28;20045;-76
2021/04/13 04:06:38;;;;;;;4.50;0.50;;;20.50;51.10;;;;;;5184942;28;20029;-76
2021/04/13 04:09:14;;;;;;;3.20;0.30;;;20.40;50.70;;;;;;5184955;28;20068;-76
2021/04/13 04:11:45;;;;;;;5.53;0.45;;;20.50;50.50;;;;;;5196693;28;20389;-76
2021/04/13 04:14:19;;;;;;;6.18;0.50;;;20.50;50.30;;;;;;5189205;28;20021;-75
2021/04/13 04:16:50;;;;;;;5.50;0.50;;;20.50;50.60;;;;;;5204758;28;20037;-76
2021/04/13 04:19:23;;;;;;;9.15;0.40;;;20.50;50.90;;;;;;5205391;28;20013;-76
2021/04/13 04:22:01;;;;;;;22.13;1.02;;;20.50;50.80;;;;;;5205461;28;20557;-73
2021/04/13 04:24:36;;;;;;;9.63;0.65;;;20.50;51.10;;;;;;5206052;28;20104;-75
2021/04/13 04:27:21;;;;;;;10.68;0.68;;;20.60;50.60;;;;;;5194135;28;20029;-76
2021/04/13 04:30:08;;;;;;;6.78;0.60;;;20.50;50.60;;;;;;5185205;28;20026;-74
2021/04/13 04:32:39;;;;;;;2.63;0.43;;;20.50;50.50;;;;;;5183262;28;20586;-76
2021/04/13 04:35:11;;;;;;;3.28;0.30;;;20.40;50.60;;;;;;5201248;28;20041;-74
2021/04/13 04:37:51;;;;;;;4.22;0.40;;;20.40;50.60;;;;;;5183649;28;20041;-75
2021/04/13 04:40:36;;;;;;;9.07;0.30;;;20.40;50.50;;;;;;5185637;28;20049;-74
2021/04/13 04:43:14;;;;;;;6.30;0.47;;;20.40;50.40;;;;;;5184359;28;20404;-74
2021/04/13 04:45:45;;;;;;;3.85;0.50;;;20.40;50.40;;;;;;5184405;28;20030;-72
2021/04/13 04:48:26;;;;;;;6.05;0.30;;;20.30;50.40;;;;;;5183823;28;20041;-74
2021/04/13 04:51:01;;;;;;;5.35;0.50;;;20.30;50.30;;;;;;5163367;28;20038;-74
2021/04/13 04:53:32;;;;;;;1.70;0.20;;;20.30;50.30;;;;;;5183806;28;20582;-74
2021/04/13 04:56:05;;;;;;;1.35;0.20;;;20.30;50.30;;;;;;5168089;28;20022;-74
2021/04/13 04:58:36;;;;;;;2.15;0.20;;;20.30;50.30;;;;;;5182905;28;20096;-74
2021/04/13 05:01:07;;;;;;;3.47;0.28;;;20.30;50.20;;;;;;5166774;28;20029;-74
2021/04/13 05:03:39;;;;;;;3.33;0.25;;;20.30;50.20;;;;;;5159034;28;20039;-74
2021/04/13 05:06:10;;;;;;;1.50;0.20;;;20.30;50.30;;;;;;5182478;28;20030;-74
2021/04/13 05:08:40;;;;;;;1.65;0.20;;;20.30;50.40;;;;;;5182559;28;20117;-74
2021/04/13 05:11:11;;;;;;;1.08;0.30;;;20.30;50.30;;;;;;5191062;28;20124;-71
2021/04/13 05:13:42;;;;;;;1.08;0.25;;;20.30;50.20;;;;;;5183544;28;20040;-73
2021/04/13 05:16:12;;;;;;;1.10;0.20;;;20.20;50.10;;;;;;5182543;28;20097;-72
2021/04/13 05:18:43;;;;;;;0.65;0.10;;;20.30;50.10;;;;;;5166804;28;20026;-74
2021/04/13 05:21:14;;;;;;;0.73;0.20;;;20.30;50.10;;;;;;5180627;28;20478;-73
2021/04/13 05:23:44;;;;;;;0.77;0.10;;;20.30;50.10;;;;;;5179254;28;20034;-75
2021/04/13 05:26:15;;;;;;;2.33;0.20;;;20.30;50.00;;;;;;5181631;28;20041;-73
2021/04/13 05:28:45;;;;;;;0.70;0.13;;;20.20;50.10;;;;;;5165802;28;20022;-75
2021/04/13 05:31:16;;;;;;;0.63;0.20;;;20.20;50.10;;;;;;5174009;28;20054;-75
2021/04/13 05:33:46;;;;;;;0.28;0.10;;;20.20;50.10;;;;;;5179809;28;20026;-75
2021/04/13 05:36:17;;;;;;;0.10;0.10;;;20.20;50.10;;;;;;5184750;28;20396;-74
2021/04/13 05:38:48;;;;;;;0.20;0.10;;;20.20;50.10;;;;;;5180346;28;20037;-74
2021/04/13 05:41:18;;;;;;;2.42;0.20;;;20.20;50.10;;;;;;5165068;28;20030;-75
2021/04/13 05:43:49;;;;;;;0.65;0.10;;;20.20;50.00;;;;;;5176995;28;20492;-74
2021/04/13 05:46:22;;;;;;;0.68;0.30;;;20.20;50.10;;;;;;5174414;28;20045;-74
2021/04/13 05:48:53;;;;;;;2.38;0.20;;;20.10;50.20;;;;;;5165138;28;20033;-75
2021/04/13 05:51:23;;;;;;;0.30;0.20;;;20.10;50.30;;;;;;5180114;28;20021;-75
2021/04/13 05:53:54;;;;;;;0.25;0.10;;;20.10;50.30;;;;;;5188311;28;20034;-74
2021/04/13 05:56:28;;;;;;;2.50;0.20;;;20.10;50.20;;;;;;5175364;28;20039;-74
2021/04/13 05:58:59;;;;;;;2.45;0.25;;;20.20;50.10;;;;;;5191057;28;20086;-74
2021/04/13 06:01:30;;;;;;;1.85;0.20;;;20.20;50.00;;;;;;5186623;28;20046;-74
2021/04/13 06:04:02;;;;;;;0.75;0.20;;;20.20;50.10;;;;;;5185088;28;20040;-74
2021/04/13 06:06:32;;;;;;;0.28;0.15;;;20.20;50.00;;;;;;5186558;28;20072;-74
2021/04/13 06:09:03;;;;;;;0.90;0.13;;;20.20;50.10;;;;;;5180330;28;20026;-72
2021/04/13 06:11:34;;;;;;;2.30;0.40;;;20.20;50.10;;;;;;5175003;28;20037;-73
2021/04/13 06:14:04;;;;;;;3.88;0.50;;;20.20;48.50;;;;;;5164488;28;20033;-74
2021/04/13 06:16:37;;;;;;;1.60;0.60;;;20.20;46.30;;;;;;5184872;28;20026;-75
2021/04/13 06:19:07;;;;;;;4.43;0.50;;;20.30;45.40;;;;;;5178173;28;20387;-75
2021/04/13 06:21:38;;;;;;;13.25;0.80;;;20.30;45.60;;;;;;5174781;28;20113;-72
2021/04/13 06:24:10;;;;;;;1.33;0.50;;;20.30;45.00;;;;;;5165593;28;20014;-73
2021/04/13 06:26:40;;;;;;;3.20;0.50;;;20.30;44.50;;;;;;5157249;28;20080;-74
2021/04/13 06:29:11;;;;;;;3.88;0.60;;;20.20;44.50;;;;;;5205333;22;20069;-76
2021/04/13 06:31:41;;;;;;;3.63;0.65;;;20.20;43.50;;;;;;5199486;28;20029;-76
2021/04/13 06:34:12;;;;;;;1.73;0.60;;;20.20;42.90;;;;;;5224707;28;20017;-76
2021/04/13 06:36:42;;;;;;;8.38;1.10;;;20.30;42.60;;;;;;5187691;28;20034;-77
2021/04/13 06:39:13;;;;;;;5.50;1.13;;;20.30;42.30;;;;;;5165866;28;20022;-77
2021/04/13 06:42:14;;;;;;;3.53;0.60;;;20.40;42.00;;;;;;5165652;28;20032;-77
2021/04/13 06:44:50;;;;;;;7.15;0.73;;;20.40;41.90;;;;;;5194930;28;20030;-77
2021/04/13 06:47:24;;;;;;;3.30;0.75;;;20.40;41.90;;;;;;5190978;28;20408;-77
2021/04/13 06:50:16;;;;;;;3.08;0.70;;;20.40;41.60;;;;;;5201632;28;20807;-75
2021/04/13 06:53:15;;;;;;;3.63;0.80;;;20.40;41.30;;;;;;5198906;28;20041;-76
2021/04/13 06:56:06;;;;;;;3.55;0.90;;;20.40;41.60;;;;;;5199891;28;20037;-77
2021/04/13 06:58:55;;;;;;;3.35;0.90;;;20.40;42.00;;;;;;5183464;28;20508;-76
2021/04/13 07:01:39;;;;;;;2.63;0.60;;;20.40;42.30;;;;;;5207661;28;20500;-77
2021/04/13 07:04:18;;;;;;;4.55;0.68;;;20.40;42.50;;;;;;5194087;28;20026;-77
2021/04/13 07:06:55;;;;;;;5.20;0.70;;;20.40;42.60;;;;;;5185761;28;20037;-77
2021/04/13 07:09:44;;;;;;;5.45;0.60;;;20.40;42.70;;;;;;5180404;28;20538;-76
2021/04/13 07:12:28;;;;;;;2.50;0.55;;;20.40;42.80;;;;;;5186642;28;20038;-77
2021/04/13 07:15:01;;;;;;;4.05;0.73;;;20.40;42.90;;;;;;5182335;28;20545;-76
2021/04/13 07:17:46;;;;;;;3.03;0.60;;;20.40;43.00;;;;;;5185012;28;20041;-77
2021/04/13 07:20:31;;;;;;;1.73;0.65;;;20.40;43.00;;;;;;5186721;28;20400;-76
2021/04/13 07:23:06;;;;;;;2.42;0.50;;;20.40;43.00;;;;;;5152294;28;20074;-76
2021/04/13 07:25:43;;;;;;;6.22;0.70;;;20.40;43.10;;;;;;5170374;28;20068;-77
2021/04/13 07:28:25;;;;;;;2.70;0.75;;;20.40;43.10;;;;;;5169647;28;20038;-76
2021/04/13 07:31:01;;;;;;;0.90;0.47;;;20.40;43.20;;;;;;5191595;28;20468;-76
2021/04/13 07:33:32;;;;;;;2.47;0.60;;;20.40;43.20;;;;;;5173084;28;20031;-78
2021/04/13 07:36:12;;;;;;;2.40;0.50;;;20.40;43.30;;;;;;5173648;28;20064;-76
2021/04/13 07:38:44;;;;;;;6.53;0.80;;;20.40;43.40;;;;;;5192406;28;20528;-77
2021/04/13 07:41:41;;;;;;;2.58;0.70;;;20.40;43.50;;;;;;5165431;28;20034;-76
2021/04/13 07:44:20;;;;;;;3.65;0.73;;;20.40;43.60;;;;;;5167082;28;20038;-76
2021/04/13 07:47:09;;;;;;;2.75;0.57;;;20.40;43.60;;;;;;5180007;28;20065;-77
2021/04/13 07:49:48;;;;;;;2.85;0.60;;;20.30;43.50;;;;;;5203840;28;20041;-77
2021/04/13 07:52:29;;;;;;;2.45;0.50;;;20.40;43.60;;;;;;5203503;28;20037;-77
2021/04/13 07:55:08;;;;;;;2.58;0.60;;;20.40;43.60;;;;;;5202578;28;20063;-76
2021/04/13 07:57:49;;;;;;;4.68;0.80;;;20.40;43.60;;;;;;5203804;28;20171;-76
2021/04/13 08:00:26;;;;;;;2.95;0.40;;;20.30;44.30;;;;;;5192005;28;20029;-75
2021/04/13 08:03:19;;;;;;;2.75;0.50;;;20.30;43.70;;;;;;5204213;28;20056;-75
2021/04/13 08:06:00;;;;;;;3.70;0.50;;;20.30;43.70;;;;;;5202185;28;20100;-76
2021/04/13 08:08:41;;;;;;;2.63;0.70;;;20.30;43.70;;;;;;5187151;28;20104;-75
2021/04/13 08:11:17;;;;;;;2.72;0.60;;;20.30;43.70;;;;;;5175278;28;20021;-75
2021/04/13 08:13:51;;;;;;;2.60;0.60;;;20.30;43.70;;;;;;5187685;28;20420;-77
2021/04/13 08:16:34;;;;;;;2.90;0.60;;;20.30;43.70;;;;;;5180260;28;20030;-77
2021/04/13 08:19:14;;;;;;;2.05;0.47;;;20.40;43.50;;;;;;5185636;28;20554;-76
2021/04/13 08:22:07;;;;;;;2.05;0.60;;;20.30;43.60;;;;;;5203507;28;20029;-75
2021/04/13 08:24:41;;;;;;;1.85;0.57;;;20.40;43.60;;;;;;5190577;28;20017;-76
2021/04/13 08:27:27;;;;;;;4.35;0.70;;;20.30;43.70;;;;;;5173707;28;20071;-76
2021/04/13 08:30:14;;;;;;;1.50;0.63;;;20.40;43.40;;;;;;5211916;28;20064;-76
2021/04/13 08:32:56;;;;;;;12.48;1.00;;;20.40;44.80;;;;;;5177969;28;20053;-75
2021/04/13 08:35:37;;;;;;;3.70;0.90;;;20.40;45.30;;;;;;5196268;28;20112;-75
2021/04/13 08:38:28;;;;;;;1.67;0.80;;;20.40;44.40;;;;;;5192104;28;20168;-75
2021/04/13 08:41:11;;;;;;;5.03;1.10;;;20.50;44.20;;;;;;5190270;28;20531;-75
2021/04/13 08:43:51;;;;;;;2.17;1.00;;;20.50;43.60;;;;;;5186863;28;20030;-75
2021/04/13 08:46:35;;;;;;;4.32;0.73;;;20.40;43.70;;;;;;5186690;28;20453;-78
2021/04/13 08:49:17;;;;;;;4.40;1.33;;;20.40;43.80;;;;;;5187297;28;20064;-79
2021/04/13 08:51:50;;;;;;;4.70;0.90;;;20.40;43.60;;;;;;5182334;28;20395;-77
2021/04/13 08:54:21;;;;;;;6.07;0.80;;;20.40;43.70;;;;;;5162699;28;20038;-75
2021/04/13 08:56:59;;;;;;;2.90;1.10;;;20.40;43.40;;;;;;5189361;28;20041;-74
2021/04/13 08:59:37;;;;;;;3.67;0.80;;;20.30;43.40;;;;;;5173563;28;20025;-77
2021/04/13 09:02:14;;;;;;;6.93;1.50;;;20.30;43.30;;;;;;5193932;28;20496;-79
2021/04/13 09:04:45;;;;;;;5.25;1.60;;;20.30;41.90;;;;;;5178205;28;20021;-80
2021/04/13 09:07:24;;;;;;;6.53;1.67;;;20.30;41.40;;;;;;5185278;28;20495;-80
2021/04/13 09:10:14;;;;;;;7.60;1.98;;;20.40;41.60;;;;;;5171828;28;20075;-79
2021/04/13 09:12:49;;;;;;;8.50;1.88;;;20.30;43.60;;;;;;5171224;28;20038;-81
2021/04/13 09:15:25;;;;;;;14.88;2.25;;;20.40;44.70;;;;;;5177354;28;20408;-79
2021/04/13 09:18:00;;;;;;;11.10;2.28;;;20.40;45.10;;;;;;5198118;28;20160;-80
2021/04/13 09:20:38;;;;;;;14.68;2.10;;;20.40;45.30;;;;;;5171155;28;20033;-80
2021/04/13 09:23:25;;;;;;;8.45;1.92;;;20.40;45.90;;;;;;5202932;28;20439;-79
2021/04/13 09:26:18;;;;;;;11.20;2.90;;;20.40;46.60;;;;;;5203943;28;20511;-79
2021/04/13 09:28:59;;;;;;;22.08;3.30;;;20.40;45.90;;;;;;5223989;28;20095;-78
2021/04/13 09:31:41;;;;;;;12.25;3.03;;;21.30;44.30;;;;;;5174509;28;20044;-79
2021/04/13 09:34:39;;;;;;;8.27;2.90;;;22.00;42.20;;;;;;5198217;28;20478;-79
2021/04/13 09:37:24;;;;;;;11.10;3.67;;;21.90;42.50;;;;;;5189185;28;20030;-79
2021/04/13 09:40:25;;;;;;;13.18;3.30;;;21.80;43.00;;;;;;5207407;28;20025;-78
2021/04/13 09:43:18;;;;;;;10.23;3.05;;;21.60;43.10;;;;;;5168306;28;20500;-78
2021/04/13 09:46:07;;;;;;;7.22;2.17;;;21.20;43.90;;;;;;5183704;28;20053;-79
2021/04/13 09:48:51;;;;;;;9.73;2.33;;;20.90;43.40;;;;;;5195474;28;20029;-78
2021/04/13 09:51:28;;;;;;;14.10;2.70;;;20.60;43.30;;;;;;5190166;28;20030;-79
2021/04/13 09:54:21;;;;;;;12.10;2.03;;;20.60;42.50;;;;;;5171193;28;20117;-79
2021/04/13 09:57:21;;;;;;;17.67;2.38;;;20.30;42.20;;;;;;5197460;28;20045;-78
2021/04/13 10:00:45;;;;;;;9.15;2.22;;;20.10;43.30;;;;;;5197811;28;20017;-78
2021/04/13 10:03:34;;;;;;;10.43;1.77;;;20.10;43.90;;;;;;5165773;28;20116;-79
2021/04/13 10:06:04;;;;;;;8.10;2.10;;;20.00;41.80;;;;;;5197465;28;20033;-79
2021/04/13 10:08:35;;;;;;;8.88;2.65;;;19.30;39.40;;;;;;5168943;28;20045;-78
2021/04/13 10:11:09;;;;;;;8.52;1.88;;;18.90;39.60;;;;;;5183500;28;20033;-80
2021/04/13 10:14:17;;;;;;;7.22;1.95;;;18.60;39.20;;;;;;5191298;28;20026;-80
2021/04/13 10:16:56;;;;;;;10.23;1.77;;;18.30;38.20;;;;;;5183777;28;20117;-78
2021/04/13 10:19:41;;;;;;;6.75;2.20;;;18.10;39.10;;;;;;5200755;28;20407;-79
2021/04/13 10:22:42;;;;;;;7.60;1.75;;;18.00;38.80;;;;;;5187738;28;20120;-78
2021/04/13 10:25:56;;;;;;;11.27;1.88;;;17.80;39.20;;;;;;5187789;28;20104;-79
2021/04/13 10:28:59;;;;;;;7.65;1.73;;;17.70;39.20;;;;;;5196544;28;20097;-80
2021/04/13 10:31:55;;;;;;;10.15;1.92;;;17.70;39.10;;;;;;5177791;28;20044;-80
2021/04/13 10:34:41;;;;;;;9.05;1.90;;;17.50;38.30;;;;;;5188568;28;20705;-79
2021/04/13 10:37:33;;;;;;;9.13;2.03;;;17.40;38.50;;;;;;5187653;28;20022;-78
2021/04/13 10:40:21;;;;;;;10.98;1.80;;;17.30;38.60;;;;;;5195908;28;20013;-78
2021/04/13 10:43:15;;;;;;;5.47;1.60;;;16.90;38.60;;;;;;5207395;28;20026;-79
2021/04/13 10:46:21;;;;;;;6.38;1.92;;;16.60;38.80;;;;;;5187437;28;20057;-79
2021/04/13 10:49:21;;;;;;;15.68;1.98;;;16.60;40.00;;;;;;5198019;28;20561;-75
2021/04/13 10:52:16;;;;;;;9.70;1.50;;;16.90;41.00;;;;;;5192542;28;20125;-74
2021/04/13 10:55:27;;;;;;;39.85;4.55;;;17.90;41.00;;;;;;5192752;28;20025;-74
2021/04/13 10:58:25;;;;;;;31.20;3.13;;;18.70;45.30;;;;;;5174502;28;20583;-74
2021/04/13 11:00:55;;;;;;;21.52;3.03;;;19.00;45.20;;;;;;5191913;28;20103;-73
2021/04/13 11:03:53;;;;;;;10.65;2.00;;;19.20;44.10;;;;;;5198850;28;20042;-77
2021/04/13 11:06:50;;;;;;;22.95;2.42;;;19.50;41.90;;;;;;5199930;28;20030;-75
2021/04/13 11:09:50;;;;;;;15.32;1.90;;;19.80;42.30;;;;;;5198386;28;20037;-77
2021/04/13 11:12:34;;;;;;;18.05;1.90;;;19.80;41.20;;;;;;5181662;28;20091;-76
2021/04/13 11:15:19;;;;;;;10.20;1.88;;;19.90;40.10;;;;;;5179584;28;20480;-77
2021/04/13 11:18:08;;;;;;;11.93;1.80;;;19.90;40.10;;;;;;5185498;28;20038;-76
2021/04/13 11:21:17;;;;;;;18.92;1.55;;;20.00;39.80;;;;;;5206794;28;20548;-76
2021/04/13 11:24:21;;;;;;;7.55;1.60;;;20.00;40.40;;;;;;5223507;28;20033;-77
2021/04/13 11:30:58;;;;;;;11.95;1.20;;;20.10;39.90;;;;;;5197569;28;20506;-76
2021/04/13 11:33:47;;;;;;;7.90;1.50;;;20.10;39.70;;;;;;5202388;28;20044;-76
2021/04/13 11:36:41;;;;;;;9.15;1.52;;;20.20;39.90;;;;;;5205777;28;20033;-76
2021/04/13 11:39:21;;;;;;;9.00;1.77;;;20.20;40.00;;;;;;5216601;28;20672;-76
2021/04/13 11:42:00;;;;;;;6.13;1.55;;;20.20;40.20;;;;;;5191404;28;20539;-76
2021/04/13 11:44:32;;;;;;;5.00;1.20;;;20.20;40.50;;;;;;5173147;28;20029;-77
2021/04/13 11:47:21;;;;;;;10.40;1.40;;;20.20;40.70;;;;;;5188600;28;20037;-77
2021/04/13 11:50:01;;;;;;;4.57;1.15;;;20.20;40.90;;;;;;5191054;28;20028;-77
2021/04/13 11:52:46;;;;;;;5.70;1.00;;;20.20;40.90;;;;;;5193841;28;20046;-77
2021/04/13 11:55:30;;;;;;;12.82;1.42;;;20.20;40.60;;;;;;5188005;28;20022;-76
2021/04/13 11:58:22;;;;;;;9.57;1.45;;;20.30;40.50;;;;;;5189740;28;20044;-76
2021/04/13 12:01:16;;;;;;;9.85;1.25;;;20.30;40.50;;;;;;5165162;28;20061;-77
2021/04/13 12:04:07;;;;;;;12.18;1.42;;;20.30;40.40;;;;;;5203265;28;20399;-76
2021/04/13 12:06:51;;;;;;;8.77;2.22;;;20.30;40.10;;;;;;5181926;28;20049;-77
2021/04/13 12:10:00;;;;;;;9.68;1.65;;;20.40;40.10;;;;;;5188618;28;20044;-76
2021/04/13 12:12:33;;;;;;;6.15;1.23;;;20.40;40.10;;;;;;5204135;28;20458;-77
2021/04/13 12:15:07;;;;;;;5.53;1.17;;;20.30;40.20;;;;;;5186181;28;20026;-76
2021/04/13 12:17:50;;;;;;;2.40;0.90;;;20.30;39.60;;;;;;5204738;28;20044;-76
2021/04/13 12:23:09;;;;;;;6.10;0.90;;;20.40;39.40;;;;;;5188531;28;20046;-77
2021/04/13 12:25:49;;;;;;;3.75;1.10;;;20.40;39.10;;;;;;5198695;28;20026;-78
2021/04/13 12:28:32;;;;;;;3.75;1.10;;;20.40;39.60;;;;;;5182366;28;20041;-79
2021/04/13 12:31:11;;;;;;;2.83;1.00;;;20.40;38.70;;;;;;5226547;22;20059;-74
2021/04/13 12:33:54;;;;;;;3.38;1.00;;;20.40;38.60;;;;;;5224762;28;20397;-73
2021/04/13 12:36:48;;;;;;;4.78;1.20;;;20.50;38.60;;;;;;5216603;28;20030;-73
2021/04/13 12:39:41;;;;;;;4.05;1.13;;;20.50;38.30;;;;;;5197428;28;20030;-73
2021/04/13 12:42:41;;;;;;;5.85;1.33;;;20.50;38.20;;;;;;5181829;28;20030;-73
2021/04/13 12:45:23;;;;;;;4.53;1.00;;;20.50;38.20;;;;;;5187644;28;20030;-74
2021/04/13 12:47:55;;;;;;;3.55;0.90;;;20.50;38.10;;;;;;5196112;28;20045;-74
2021/04/13 12:50:43;;;;;;;3.00;0.80;;;20.50;38.10;;;;;;5187154;28;20029;-71
2021/04/13 12:53:16;;;;;;;4.28;1.10;;;20.50;37.90;;;;;;5171461;28;20071;-73
2021/04/13 12:55:46;;;;;;;4.35;0.93;;;20.50;37.90;;;;;;5183040;28;20093;-75
2021/04/13 12:58:18;;;;;;;4.80;0.90;;;20.60;38.00;;;;;;5198919;28;20104;-74
2021/04/13 13:00:49;;;;;;;4.05;0.98;;;20.50;38.10;;;;;;5194361;28;20018;-75
2021/04/13 13:03:30;;;;;;;4.90;0.85;;;20.60;37.90;;;;;;5169895;28;20168;-75
2021/04/13 13:06:15;;;;;;;4.00;0.82;;;20.60;37.80;;;;;;5185777;28;20021;-73
2021/04/13 13:08:55;;;;;;;3.97;0.80;;;20.60;38.10;;;;;;5171981;28;20179;-72
2021/04/13 13:11:26;;;;;;;3.45;0.98;;;20.70;38.60;;;;;;5203573;28;20175;-72
2021/04/13 13:13:58;;;;;;;5.00;1.10;;;20.60;38.60;;;;;;5174054;28;20125;-74
2021/04/13 13:16:29;;;;;;;4.47;1.08;;;20.60;38.50;;;;;;5181496;28;20040;-74
2021/04/13 13:19:00;;;;;;;2.97;1.00;;;20.60;38.40;;;;;;5186947;28;20033;-71
2021/04/13 13:21:47;;;;;;;2.65;0.73;;;20.60;38.40;;;;;;5181674;28;20076;-72
2021/04/13 13:24:26;;;;;;;4.15;1.00;;;20.70;38.50;;;;;;5186057;28;20391;-72
2021/04/13 13:26:56;;;;;;;6.05;1.10;;;20.60;38.60;;;;;;5183023;28;20141;-72
2021/04/13 13:29:27;;;;;;;3.83;0.80;;;20.60;38.80;;;;;;5199556;28;20492;-70
2021/04/13 13:31:57;;;;;;;3.33;0.85;;;20.50;39.00;;;;;;5202844;28;20044;-71
2021/04/13 13:34:28;;;;;;;2.10;0.73;;;20.40;38.90;;;;;;5204863;28;20044;-70
2021/04/13 13:36:59;;;;;;;2.08;0.80;;;20.40;39.00;;;;;;5203168;28;20118;-72
2021/04/13 13:39:30;;;;;;;2.67;0.65;;;20.40;38.90;;;;;;5176222;28;20025;-72
2021/04/13 13:42:04;;;;;;;3.10;0.73;;;20.40;38.80;;;;;;5164728;28;20092;-73
2021/04/13 13:44:49;;;;;;;4.03;0.95;;;20.30;38.90;;;;;;5191825;28;20482;-72
2021/04/13 13:47:32;;;;;;;8.00;1.20;;;20.30;38.50;;;;;;5194652;28;20495;-72
2021/04/13 13:50:21;;;;;;;5.03;1.08;;;20.40;37.70;;;;;;5172468;28;20025;-75
2021/04/13 13:52:53;;;;;;;4.15;0.90;;;20.40;37.30;;;;;;5202224;28;20124;-72
2021/04/13 13:55:35;;;;;;;4.35;1.23;;;20.50;37.50;;;;;;5198193;28;20028;-71
2021/04/13 13:58:14;;;;;;;4.65;1.20;;;20.60;37.60;;;;;;5187332;28;20033;-75